createdAt,value
2022-09-27T00:00:44.626Z,43.51
2022-09-27T00:01:44.703Z,45.36
2022-09-27T00:02:44.678Z,47.50
2022-09-27T00:03:44.609Z,59.42
2022-09-27T00:04:44.611Z,55.99
2022-09-27T00:05:44.584Z,45.03
2022-09-27T00:06:44.581Z,58.63
2022-09-27T00:07:44.565Z,55.77
2022-09-27T00:08:44.566Z,52.38
2022-09-27T00:09:46.496Z,49.49
2022-09-27T00:10:44.551Z,57.47
2022-09-27T00:11:44.545Z,46.35
2022-09-27T00:12:44.547Z,53.62
2022-09-27T00:13:44.522Z,53.73
2022-09-27T00:14:44.524Z,48.81
2022-09-27T00:15:44.536Z,47.22
2022-09-27T00:16:44.498Z,50.91
2022-09-27T00:17:45.422Z,50.85
2022-09-27T00:18:44.481Z,50.58
2022-09-27T00:19:44.484Z,42.79
2022-09-27T00:20:44.483Z,54.39
2022-09-27T00:21:44.462Z,54.84
2022-09-27T00:22:44.455Z,43.61
2022-09-27T00:23:44.447Z,43.09
2022-09-27T00:24:44.450Z,43.51
2022-09-27T00:25:44.428Z,52.02
2022-09-27T00:26:44.428Z,53.87
2022-09-27T00:27:44.419Z,55.31
2022-09-27T00:28:44.407Z,59.76
2022-09-27T00:31:57.082Z,54.67
2022-09-27T00:32:57.061Z,48.83
2022-09-27T00:33:57.061Z,60.70
2022-09-27T00:34:57.048Z,56.66
2022-09-27T00:35:57.034Z,48.65
2022-09-27T00:36:57.043Z,59.60
2022-09-27T00:37:57.019Z,54.72
2022-09-27T00:38:57.015Z,55.27
2022-09-27T00:39:57.010Z,50.50
2022-09-27T00:40:57.137Z,50.78
2022-09-27T00:41:56.985Z,43.96
2022-09-27T00:42:56.988Z,48.25
2022-09-27T00:43:56.970Z,50.73
2022-09-27T00:44:56.976Z,55.21
2022-09-27T00:45:57.008Z,55.09
2022-09-27T00:46:56.946Z,56.34
2022-09-27T00:47:56.949Z,49.02
2022-09-27T00:48:57.845Z,52.83
2022-09-27T00:49:57.935Z,58.97
2022-09-27T00:50:56.942Z,49.43
2022-09-27T00:51:56.906Z,56.80
2022-09-27T00:52:56.914Z,55.84
2022-09-27T00:53:56.891Z,56.56
2022-09-27T00:54:56.885Z,43.68
2022-09-27T00:55:56.870Z,43.24
2022-09-27T00:56:57.878Z,53.32
2022-09-27T00:57:56.853Z,53.71
2022-09-27T00:58:56.852Z,46.19
2022-09-27T00:59:56.847Z,48.05
2022-09-27T01:00:56.937Z,63.53
2022-09-27T01:01:56.960Z,47.86
2022-09-27T01:02:56.915Z,54.63
2022-09-27T01:03:56.815Z,61.18
2022-09-27T01:04:56.814Z,55.24
2022-09-27T01:05:56.827Z,58.11
2022-09-27T01:06:56.782Z,57.84
2022-09-27T01:07:56.811Z,60.91
2022-09-27T01:08:56.769Z,51.66
2022-09-27T01:09:56.765Z,51.46
2022-09-27T01:10:56.772Z,56.56
2022-09-27T01:11:56.766Z,47.34
2022-09-27T01:12:56.739Z,63.82
2022-09-27T01:13:56.725Z,52.95
2022-09-27T01:14:56.715Z,54.39
2022-09-27T01:15:56.795Z,51.24
2022-09-27T01:16:56.708Z,50.79
2022-09-27T01:17:56.703Z,47.74
2022-09-27T01:18:56.691Z,52.50
2022-09-27T01:19:56.683Z,57.19
2022-09-27T01:20:56.689Z,51.76
2022-09-27T01:21:56.662Z,51.33
2022-09-27T01:22:56.661Z,58.66
2022-09-27T01:23:56.653Z,43.53
2022-09-27T01:24:56.645Z,41.31
2022-09-27T01:25:56.664Z,52.21
2022-09-27T01:26:56.625Z,56.05
2022-09-27T01:27:56.618Z,50.90
2022-09-27T01:28:57.313Z,44.45
2022-09-27T01:29:56.612Z,41.38
2022-09-27T01:30:56.686Z,55.51
2022-09-27T01:31:56.589Z,56.19
2022-09-27T01:32:56.584Z,56.82
2022-09-27T01:33:56.590Z,42.18
2022-09-27T01:34:56.560Z,46.36
2022-09-27T01:35:56.575Z,40.95
2022-09-27T01:36:56.539Z,52.29
2022-09-27T01:37:56.531Z,47.59
2022-09-27T01:38:56.530Z,50.07
2022-09-27T01:39:56.528Z,58.84
2022-09-27T01:40:57.415Z,52.38
2022-09-27T01:41:56.512Z,45.76
2022-09-27T01:42:56.496Z,46.59
2022-09-27T01:43:56.488Z,57.04
2022-09-27T01:44:56.527Z,56.80
2022-09-27T01:45:56.579Z,50.49
2022-09-27T01:46:56.878Z,59.17
2022-09-27T01:47:56.457Z,52.09
2022-09-27T01:48:56.447Z,44.14
2022-09-27T01:49:56.444Z,41.61
2022-09-27T01:50:56.428Z,53.84
2022-09-27T01:51:56.423Z,53.03
2022-09-27T01:52:57.357Z,51.61
2022-09-27T01:53:56.405Z,47.38
2022-09-27T01:54:56.393Z,41.03
2022-09-27T01:55:56.402Z,48.61
2022-09-27T01:56:56.385Z,43.59
2022-09-27T01:57:56.374Z,51.05
2022-09-27T01:58:56.368Z,41.71
2022-09-27T01:59:56.355Z,49.74
2022-09-27T02:00:56.352Z,44.32
2022-09-27T02:01:56.418Z,60.51
2022-09-27T02:02:56.387Z,56.51
2022-09-27T02:03:57.906Z,56.87
2022-09-27T02:07:02.628Z,50.51
2022-09-27T02:08:02.603Z,42.29
2022-09-27T02:09:02.592Z,48.78
2022-09-27T02:10:03.445Z,55.36
2022-09-27T02:11:02.574Z,52.43
2022-09-27T02:12:02.570Z,46.29
2022-09-27T02:13:02.568Z,58.34
2022-09-27T02:14:02.552Z,52.33
2022-09-27T02:15:02.539Z,49.73
2022-09-27T02:16:02.627Z,59.44
2022-09-27T02:17:05.454Z,45.35
2022-09-27T02:18:02.518Z,47.18
2022-09-27T02:19:02.506Z,43.97
2022-09-27T02:20:03.594Z,53.81
2022-09-27T02:23:10.434Z,62.54
2022-09-27T02:24:10.409Z,60.59
2022-09-27T02:25:10.545Z,53.80
2022-09-27T02:26:10.392Z,60.90
2022-09-27T02:27:10.386Z,58.66
2022-09-27T02:28:10.387Z,52.94
2022-09-27T02:29:10.382Z,58.55
2022-09-27T02:30:10.368Z,54.03
2022-09-27T02:31:10.442Z,44.32
2022-09-27T02:32:10.345Z,52.75
2022-09-27T02:33:10.353Z,56.75
2022-09-27T02:34:10.325Z,55.75
2022-09-27T02:35:10.438Z,51.11
2022-09-27T02:36:10.316Z,57.70
2022-09-27T02:37:10.302Z,56.85
2022-09-27T02:38:10.300Z,63.09
2022-09-27T02:39:10.373Z,56.09
2022-09-27T02:40:10.404Z,48.33
2022-09-27T02:41:10.277Z,56.84
2022-09-27T02:42:11.366Z,54.55
2022-09-27T02:43:11.349Z,55.89
2022-09-27T02:44:11.351Z,54.24
2022-09-27T02:45:11.336Z,50.32
2022-09-27T02:46:11.360Z,56.53
2022-09-27T02:47:11.323Z,59.52
2022-09-27T02:48:11.315Z,48.74
2022-09-27T02:49:11.401Z,50.92
2022-09-27T02:50:11.292Z,57.38
2022-09-27T02:51:11.296Z,54.37
2022-09-27T02:52:11.276Z,54.18
2022-09-27T02:53:11.276Z,55.91
2022-09-27T02:54:11.271Z,54.59
2022-09-27T02:55:11.254Z,59.68
2022-09-27T02:56:11.252Z,62.79
2022-09-27T02:57:11.285Z,55.64
2022-09-27T02:58:11.234Z,48.16
2022-09-27T02:59:11.226Z,55.40
2022-09-27T03:00:11.211Z,55.11
2022-09-27T03:01:11.290Z,60.14
2022-09-27T03:02:13.782Z,52.47
2022-09-27T03:03:12.302Z,56.19
2022-09-27T03:04:11.188Z,58.96
2022-09-27T03:05:11.868Z,61.03
2022-09-27T03:06:12.872Z,46.78
2022-09-27T03:07:11.158Z,60.34
2022-09-27T03:08:11.799Z,59.86
2022-09-27T03:09:11.180Z,62.63
2022-09-27T03:10:11.873Z,60.85
2022-09-27T03:11:11.129Z,57.97
2022-09-27T03:12:11.118Z,61.48
2022-09-27T03:13:11.103Z,57.68
2022-09-27T03:14:11.107Z,63.56
2022-09-27T03:15:11.143Z,64.31
2022-09-27T03:16:11.098Z,59.88
2022-09-27T03:17:11.149Z,58.06
2022-09-27T03:18:11.065Z,62.33
2022-09-27T03:19:11.195Z,61.98
2022-09-27T03:20:11.055Z,62.39
2022-09-27T03:21:11.857Z,56.91
2022-09-27T03:22:11.034Z,56.05
2022-09-27T03:23:11.028Z,63.57
2022-09-27T03:24:11.874Z,61.09
2022-09-27T03:25:11.015Z,60.25
2022-09-27T03:26:13.220Z,60.39
2022-09-27T03:27:12.003Z,60.15
2022-09-27T03:28:10.988Z,63.83
2022-09-27T03:29:10.980Z,58.50
2022-09-27T03:30:10.969Z,63.01
2022-09-27T03:31:11.084Z,62.88
2022-09-27T03:32:10.955Z,61.69
2022-09-27T03:33:10.952Z,63.47
2022-09-27T03:34:10.943Z,62.26
2022-09-27T03:35:10.928Z,69.11
2022-09-27T03:36:11.395Z,69.15
2022-09-27T03:37:10.912Z,63.88
2022-09-27T03:38:10.914Z,62.64
2022-09-27T03:39:10.943Z,59.55
2022-09-27T03:40:10.889Z,62.69
2022-09-27T03:41:11.895Z,65.05
2022-09-27T03:42:10.875Z,61.36
2022-09-27T03:43:10.867Z,59.62
2022-09-27T03:44:10.860Z,63.84
2022-09-27T03:45:10.846Z,60.85
2022-09-27T03:46:12.431Z,60.70
2022-09-27T03:47:10.830Z,63.01
2022-09-27T03:48:10.824Z,60.37
2022-09-27T03:49:11.807Z,57.41
2022-09-27T03:50:10.808Z,64.51
2022-09-27T03:51:10.813Z,64.73
2022-09-27T03:52:10.798Z,65.36
2022-09-27T03:53:10.785Z,62.83
2022-09-27T03:54:10.779Z,62.90
2022-09-27T03:55:10.772Z,61.98
2022-09-27T03:56:12.300Z,63.91
2022-09-27T03:57:10.749Z,63.05
2022-09-27T03:58:10.748Z,57.41
2022-09-27T03:59:10.842Z,63.04
2022-09-27T04:00:11.383Z,62.01
2022-09-27T04:01:10.801Z,62.10
2022-09-27T04:02:10.774Z,61.65
2022-09-27T04:03:10.702Z,66.34
2022-09-27T04:04:11.568Z,65.36
2022-09-27T04:05:10.699Z,67.27
2022-09-27T04:06:10.683Z,63.01
2022-09-27T04:07:10.673Z,58.16
2022-09-27T04:08:11.392Z,64.39
2022-09-27T04:09:10.727Z,66.04
2022-09-27T04:10:11.312Z,65.76
2022-09-27T04:11:10.636Z,65.27
2022-09-27T04:12:10.668Z,65.44
2022-09-27T04:13:10.618Z,63.03
2022-09-27T04:14:10.620Z,64.62
2022-09-27T04:15:10.617Z,63.14
2022-09-27T04:16:10.599Z,63.23
2022-09-27T04:17:10.623Z,68.63
2022-09-27T04:18:10.582Z,63.54
2022-09-27T04:19:10.584Z,63.70
2022-09-27T04:20:10.568Z,69.25
2022-09-27T04:21:10.564Z,64.50
2022-09-27T04:22:10.551Z,61.29
2022-09-27T04:23:10.542Z,66.23
2022-09-27T04:24:10.532Z,66.15
2022-09-27T04:25:10.534Z,66.34
2022-09-27T04:26:10.524Z,67.06
2022-09-27T04:27:10.509Z,66.28
2022-09-27T04:28:10.513Z,64.17
2022-09-27T04:29:10.546Z,66.05
2022-09-27T04:30:10.496Z,64.02
2022-09-27T04:31:10.577Z,65.75
2022-09-27T04:32:10.482Z,67.38
2022-09-27T04:33:10.468Z,63.89
2022-09-27T04:34:10.459Z,63.97
2022-09-27T04:35:10.470Z,68.57
2022-09-27T04:36:11.442Z,66.43
2022-09-27T04:37:10.445Z,65.36
2022-09-27T04:38:10.429Z,68.16
2022-09-27T04:39:11.452Z,68.56
2022-09-27T04:40:11.322Z,64.49
2022-09-27T04:41:10.416Z,65.86
2022-09-27T04:42:10.395Z,63.60
2022-09-27T04:43:10.889Z,65.39
2022-09-27T04:44:10.390Z,66.53
2022-09-27T04:45:10.377Z,63.95
2022-09-27T04:46:10.415Z,60.37
2022-09-27T04:47:12.318Z,66.46
2022-09-27T04:48:10.352Z,67.11
2022-09-27T04:49:10.397Z,66.38
2022-09-27T04:50:10.339Z,65.75
2022-09-27T04:51:11.325Z,68.34
2022-09-27T04:52:10.323Z,65.10
2022-09-27T04:53:10.314Z,66.35
2022-09-27T04:54:10.897Z,66.23
2022-09-27T04:55:10.305Z,66.61
2022-09-27T04:56:10.900Z,67.98
2022-09-27T04:57:10.279Z,65.84
2022-09-27T04:58:10.287Z,67.52
2022-09-27T04:59:10.950Z,67.56
2022-09-27T05:00:10.268Z,66.47
2022-09-27T05:01:10.384Z,65.10
2022-09-27T05:02:10.272Z,66.81
2022-09-27T05:03:10.233Z,69.21
2022-09-27T05:04:10.235Z,66.80
2022-09-27T05:05:10.221Z,68.21
2022-09-27T05:06:10.211Z,65.34
2022-09-27T05:07:10.903Z,69.20
2022-09-27T05:08:10.194Z,68.77
2022-09-27T05:09:10.875Z,67.01
2022-09-27T05:10:10.177Z,70.00
2022-09-27T05:11:10.178Z,68.49
2022-09-27T05:12:10.161Z,68.58
2022-09-27T05:13:10.158Z,62.78
2022-09-27T05:14:10.155Z,69.63
2022-09-27T05:15:11.141Z,69.95
2022-09-27T05:16:10.341Z,71.04
2022-09-27T05:17:10.208Z,69.38
2022-09-27T05:18:10.154Z,70.50
2022-09-27T05:19:10.109Z,68.11
2022-09-27T05:20:10.905Z,68.96
2022-09-27T05:21:10.098Z,70.30
2022-09-27T05:22:10.083Z,70.89
2022-09-27T05:23:10.069Z,70.24
2022-09-27T05:24:10.070Z,70.26
2022-09-27T05:25:10.061Z,68.87
2022-09-27T05:26:10.053Z,70.20
2022-09-27T05:27:10.049Z,68.79
2022-09-27T05:28:10.032Z,68.40
2022-09-27T05:29:10.065Z,70.53
2022-09-27T05:30:10.031Z,70.40
2022-09-27T05:31:10.109Z,70.40
2022-09-27T05:32:10.845Z,69.96
2022-09-27T05:33:11.917Z,71.20
2022-09-27T05:34:09.983Z,69.98
2022-09-27T05:35:09.978Z,69.73
2022-09-27T05:36:09.976Z,69.68
2022-09-27T05:37:09.964Z,69.44
2022-09-27T05:38:10.830Z,70.73
2022-09-27T05:39:09.950Z,69.04
2022-09-27T05:40:29.278Z,69.08
2022-09-27T05:41:12.004Z,67.65
2022-09-27T05:42:09.921Z,66.52
2022-09-27T05:43:09.917Z,69.89
2022-09-27T05:44:09.919Z,68.97
2022-09-27T05:45:09.916Z,68.31
2022-09-27T05:46:10.923Z,70.43
2022-09-27T05:47:11.413Z,66.57
2022-09-27T05:48:09.876Z,67.65
2022-09-27T05:49:09.870Z,68.80
2022-09-27T05:50:09.866Z,69.30
2022-09-27T05:51:10.839Z,66.65
2022-09-27T05:52:15.005Z,68.88
2022-09-27T05:53:11.840Z,68.77
2022-09-27T05:54:10.456Z,67.65
2022-09-27T05:55:10.412Z,67.49
2022-09-27T05:56:09.820Z,68.06
2022-09-27T05:57:09.810Z,69.40
2022-09-27T06:00:19.102Z,68.77
2022-09-27T06:01:20.304Z,69.90
2022-09-27T06:02:20.202Z,70.87
2022-09-27T06:03:20.164Z,68.30
2022-09-27T06:04:20.167Z,67.14
2022-09-27T06:05:20.148Z,67.36
2022-09-27T06:06:20.183Z,67.40
2022-09-27T06:07:20.132Z,68.67
2022-09-27T06:08:20.642Z,68.69
2022-09-27T06:09:20.645Z,66.96
2022-09-27T06:10:20.129Z,65.55
2022-09-27T06:11:20.127Z,66.40
2022-09-27T06:12:20.112Z,69.25
2022-09-27T06:13:20.081Z,66.54
2022-09-27T06:14:20.082Z,66.03
2022-09-27T06:15:20.069Z,66.73
2022-09-27T06:16:23.679Z,67.58
2022-09-27T06:17:22.661Z,65.31
2022-09-27T06:18:20.050Z,66.10
2022-09-27T06:19:20.067Z,69.83
2022-09-27T06:20:20.022Z,70.70
2022-09-27T06:21:20.019Z,69.54
2022-09-27T06:22:20.643Z,73.41
2022-09-27T06:23:20.012Z,72.00
2022-09-27T06:24:21.011Z,70.31
2022-09-27T06:25:20.008Z,67.47
2022-09-27T06:26:20.038Z,66.60
2022-09-27T06:27:19.972Z,68.37
2022-09-27T06:28:22.724Z,64.53
2022-09-27T06:29:19.953Z,66.71
2022-09-27T06:30:21.718Z,68.60
2022-09-27T06:31:19.967Z,65.52
2022-09-27T06:32:19.939Z,65.76
2022-09-27T06:33:20.645Z,68.18
2022-09-27T06:34:19.926Z,67.22
2022-09-27T06:35:19.910Z,66.72
2022-09-27T06:36:20.253Z,68.98
2022-09-27T06:37:19.895Z,65.44
2022-09-27T06:38:19.927Z,67.50
2022-09-27T06:39:19.884Z,64.00
2022-09-27T06:40:19.899Z,65.30
2022-09-27T06:41:19.865Z,66.41
2022-09-27T06:42:19.830Z,65.78
2022-09-27T06:43:19.845Z,65.31
2022-09-27T06:44:19.839Z,67.29
2022-09-27T06:45:21.755Z,64.33
2022-09-27T06:46:19.902Z,65.70
2022-09-27T06:47:20.607Z,63.13
2022-09-27T06:48:19.797Z,66.80
2022-09-27T06:49:19.799Z,64.64
2022-09-27T06:50:19.792Z,67.45
2022-09-27T06:51:21.220Z,64.40
2022-09-27T06:52:21.733Z,66.61
2022-09-27T06:53:20.734Z,68.63
2022-09-27T06:54:19.890Z,65.54
2022-09-27T06:55:20.653Z,67.99
2022-09-27T06:56:19.765Z,69.03
2022-09-27T06:57:19.727Z,67.28
2022-09-27T06:58:19.712Z,68.62
2022-09-27T06:59:19.702Z,68.46
2022-09-27T07:00:23.154Z,67.15
2022-09-27T07:01:20.379Z,65.86
2022-09-27T07:02:19.713Z,67.37
2022-09-27T07:03:19.674Z,68.74
2022-09-27T07:04:20.248Z,65.65
2022-09-27T07:05:19.813Z,65.49
2022-09-27T07:06:19.661Z,65.27
2022-09-27T07:07:19.645Z,65.95
2022-09-27T07:08:19.634Z,63.82
2022-09-27T07:09:19.629Z,65.78
2022-09-27T07:10:20.252Z,66.54
2022-09-27T07:11:19.614Z,66.89
2022-09-27T07:12:19.636Z,74.29
2022-09-27T07:13:19.725Z,62.99
2022-09-27T07:14:19.705Z,66.42
2022-09-27T07:15:19.711Z,69.10
2022-09-27T07:16:52.281Z,64.94
2022-09-27T07:17:19.604Z,65.40
2022-09-27T07:18:19.552Z,68.66
2022-09-27T07:19:19.554Z,68.68
2022-09-27T07:20:20.178Z,68.20
2022-09-27T07:21:19.541Z,67.34
2022-09-27T07:22:19.532Z,68.80
2022-09-27T07:23:19.519Z,66.06
2022-09-27T07:24:19.500Z,67.36
2022-09-27T07:25:19.499Z,65.64
2022-09-27T07:26:19.487Z,67.82
2022-09-27T07:27:19.497Z,67.31
2022-09-27T07:28:22.002Z,65.28
2022-09-27T07:29:20.468Z,64.98
2022-09-27T07:30:19.466Z,67.01
2022-09-27T07:31:19.458Z,65.51
2022-09-27T07:32:19.442Z,66.94
2022-09-27T07:33:19.443Z,66.34
2022-09-27T07:34:19.443Z,66.43
2022-09-27T07:35:21.269Z,65.87
2022-09-27T07:36:20.170Z,69.12
2022-09-27T07:37:19.437Z,66.85
2022-09-27T07:38:19.411Z,67.06
2022-09-27T07:39:19.398Z,68.26
2022-09-27T07:40:19.451Z,65.73
2022-09-27T07:41:19.390Z,63.47
2022-09-27T07:42:20.280Z,65.70
2022-09-27T07:43:19.380Z,66.32
2022-09-27T07:44:19.350Z,65.95
2022-09-27T07:45:19.347Z,66.40
2022-09-27T07:46:19.357Z,65.69
2022-09-27T07:47:19.325Z,65.36
2022-09-27T07:48:19.348Z,65.02
2022-09-27T07:49:19.379Z,67.16
2022-09-27T07:50:19.294Z,67.73
2022-09-27T07:51:19.293Z,67.29
2022-09-27T07:52:19.288Z,66.58
2022-09-27T07:53:19.279Z,67.45
2022-09-27T07:54:19.272Z,66.40
2022-09-27T07:55:19.260Z,65.15
2022-09-27T07:56:19.239Z,68.35
2022-09-27T07:57:20.247Z,65.67
2022-09-27T07:58:19.259Z,68.03
2022-09-27T07:59:19.228Z,65.24
2022-09-27T08:00:19.225Z,65.81
2022-09-27T08:01:19.302Z,65.38
2022-09-27T21:31:04.527Z,56.36
2022-09-27T21:32:05.575Z,58.80
2022-09-27T21:33:06.314Z,61.97
2022-09-27T21:34:05.539Z,46.29
2022-09-27T21:35:05.541Z,60.13
2022-09-27T21:36:05.517Z,57.19
2022-09-27T21:37:05.506Z,60.75
2022-09-27T21:38:05.511Z,58.96
2022-09-27T21:39:05.494Z,67.27
2022-09-27T21:40:07.384Z,54.93
2022-09-27T21:41:06.529Z,55.19
2022-09-27T21:42:07.314Z,63.87
2022-09-27T21:43:05.459Z,61.85
2022-09-27T21:44:06.347Z,59.55
2022-09-27T21:45:05.464Z,60.41
2022-09-27T21:46:05.428Z,59.47
2022-09-27T21:47:05.512Z,59.05
2022-09-27T21:48:05.411Z,56.45
2022-09-27T21:49:05.421Z,61.34
2022-09-27T21:50:05.402Z,59.46
2022-09-27T21:51:05.388Z,56.77
2022-09-27T21:52:05.387Z,58.83
2022-09-27T21:53:05.374Z,61.47
2022-09-27T21:54:05.384Z,52.42
2022-09-27T21:55:05.364Z,55.04
2022-09-27T21:56:05.348Z,59.98
2022-09-27T21:57:05.349Z,55.46
2022-09-27T21:58:05.331Z,58.22
2022-09-27T21:59:05.343Z,54.70
2022-09-27T22:00:05.318Z,55.33
2022-09-27T22:01:05.341Z,55.51
2022-09-27T22:02:05.354Z,59.12
2022-09-27T22:03:05.358Z,56.63
2022-09-27T22:04:05.305Z,57.22
2022-09-27T22:05:05.278Z,57.19
2022-09-27T22:06:05.261Z,53.91
2022-09-27T22:07:05.283Z,52.43
2022-09-27T22:08:05.247Z,50.80
2022-09-27T22:09:05.248Z,51.65
2022-09-27T22:10:05.237Z,59.29
2022-09-27T22:11:05.260Z,57.59
2022-09-27T22:12:05.223Z,57.64
2022-09-27T22:13:05.232Z,57.22
2022-09-27T22:14:05.206Z,58.54
2022-09-27T22:15:05.215Z,58.84
2022-09-27T22:16:05.883Z,54.72
2022-09-27T22:17:08.810Z,61.81
2022-09-27T22:18:06.900Z,58.70
2022-09-27T22:19:05.172Z,59.67
2022-09-27T22:20:05.151Z,61.23
2022-09-27T22:21:05.150Z,63.05
2022-09-27T22:22:05.142Z,55.05
2022-09-27T22:23:05.785Z,56.47
2022-09-27T22:24:07.827Z,55.31
2022-09-27T22:25:06.124Z,49.59
2022-09-27T22:26:05.115Z,52.61
2022-09-27T22:27:05.094Z,58.45
2022-09-27T22:28:05.822Z,59.98
2022-09-27T22:29:05.085Z,57.45
2022-09-27T22:30:05.075Z,51.13
2022-09-27T22:31:05.125Z,54.21
2022-09-27T22:32:05.924Z,60.09
2022-09-27T22:33:06.055Z,61.11
2022-09-27T22:34:05.039Z,57.17
2022-09-27T22:35:05.038Z,59.37
2022-09-27T22:36:05.023Z,59.86
2022-09-27T22:37:05.017Z,62.58
2022-09-27T22:38:05.835Z,58.27
2022-09-27T22:39:05.024Z,56.42
2022-09-27T22:40:05.001Z,50.85
2022-09-27T22:41:04.990Z,61.61
2022-09-27T22:42:04.974Z,58.24
2022-09-27T22:43:04.988Z,51.94
2022-09-27T22:44:04.956Z,54.40
2022-09-27T22:45:04.964Z,51.00
2022-09-27T22:46:04.937Z,57.95
2022-09-27T22:47:04.969Z,58.83
2022-09-27T22:48:04.937Z,59.55
2022-09-27T22:49:04.926Z,49.81
2022-09-27T22:50:04.919Z,62.37
2022-09-27T22:51:04.896Z,57.99
2022-09-27T22:52:04.893Z,49.29
2022-09-27T22:53:04.899Z,58.80
2022-09-27T22:54:04.880Z,56.39
2022-09-27T22:55:04.867Z,47.51
2022-09-27T22:56:04.991Z,52.71
2022-09-27T22:57:04.860Z,49.02
2022-09-27T22:58:04.851Z,57.65
2022-09-27T22:59:04.847Z,53.49
2022-09-27T23:00:04.826Z,62.13
2022-09-27T23:01:04.831Z,47.58
2022-09-27T23:02:04.828Z,52.49
2022-09-27T23:03:05.334Z,51.07
2022-09-27T23:04:04.849Z,47.49
2022-09-27T23:05:04.801Z,54.46
2022-09-27T23:06:08.348Z,49.82
2022-09-27T23:07:04.791Z,45.75
2022-09-27T23:08:04.775Z,56.00
2022-09-27T23:09:04.760Z,53.18
2022-09-27T23:10:04.760Z,47.36
2022-09-27T23:11:04.753Z,58.40
2022-09-27T23:12:04.738Z,57.92
2022-09-27T23:13:04.754Z,53.60
2022-09-27T23:14:04.725Z,59.47
2022-09-27T23:15:04.722Z,55.92
2022-09-27T23:16:04.732Z,62.23
2022-09-27T23:17:05.413Z,54.58
2022-09-27T23:18:04.687Z,58.55
2022-09-27T23:19:04.698Z,48.68
2022-09-27T23:20:04.675Z,53.76
2022-09-27T23:21:04.678Z,51.34
2022-09-27T23:22:04.661Z,56.11
2022-09-27T23:23:04.678Z,51.98
2022-09-27T23:24:04.648Z,57.42
2022-09-27T23:25:04.632Z,56.53
2022-09-27T23:26:04.632Z,53.08
2022-09-27T23:27:04.628Z,56.22
2022-09-27T23:28:04.617Z,51.85
2022-09-27T23:29:04.602Z,52.48
2022-09-27T23:30:05.298Z,57.17
2022-09-27T23:31:04.742Z,61.05
2022-09-27T23:32:04.583Z,55.50
2022-09-27T23:33:04.575Z,56.10
2022-09-27T23:34:04.570Z,47.24
2022-09-27T23:35:04.593Z,53.73
2022-09-27T23:36:04.548Z,58.36
2022-09-27T23:37:04.542Z,57.77
2022-09-27T23:38:04.522Z,49.89
2022-09-27T23:39:04.521Z,53.36
2022-09-27T23:40:04.559Z,61.32
2022-09-27T23:41:04.516Z,54.41
2022-09-27T23:42:04.505Z,58.08
2022-09-27T23:43:04.502Z,64.91
2022-09-27T23:44:04.491Z,53.91
2022-09-27T23:45:04.478Z,55.64
2022-09-27T23:46:04.453Z,56.81
2022-09-27T23:47:05.544Z,52.29
2022-09-27T23:48:04.450Z,52.36
2022-09-27T23:49:04.448Z,50.28
2022-09-27T23:50:04.434Z,53.82
2022-09-27T23:51:04.438Z,50.47
2022-09-27T23:52:04.419Z,49.47
2022-09-27T23:53:04.415Z,49.75
2022-09-27T23:54:05.405Z,58.64
2022-09-27T23:55:04.396Z,61.61
2022-09-27T23:56:04.395Z,53.61
2022-09-27T23:57:04.403Z,45.16
2022-09-27T23:58:05.344Z,52.05
2022-09-27T23:59:04.365Z,57.61
